createdAt,value
2022-09-20T00:02:03.393Z,90.02
2022-09-20T00:04:31.518Z,90.24
2022-09-20T00:06:59.159Z,90.32
2022-09-20T00:09:27.548Z,90.06
2022-09-20T00:11:55.208Z,90.42
2022-09-20T00:14:23.220Z,90.13
2022-09-20T00:16:50.983Z,91.73
2022-09-20T00:19:23.200Z,90.91
2022-09-20T00:21:50.834Z,91.19
2022-09-20T00:24:19.469Z,90.35
2022-09-20T00:26:47.105Z,90.51
2022-09-20T00:29:15.179Z,89.65
2022-09-20T00:31:43.114Z,90.11
2022-09-20T00:34:29.584Z,90.26
2022-09-20T00:36:58.857Z,90.02
2022-09-20T00:39:27.046Z,89.94
2022-09-20T00:41:54.689Z,89.75
2022-09-20T00:44:47.961Z,89.45
2022-09-20T00:47:23.428Z,89.79
2022-09-20T00:49:54.638Z,90.06
2022-09-20T00:52:24.873Z,90.06
2022-09-20T00:54:52.931Z,89.63
2022-09-20T00:57:20.810Z,89.82
2022-09-20T00:59:50.232Z,89.92
2022-09-20T01:02:21.220Z,89.45
2022-09-20T01:04:50.381Z,90.09
2022-09-20T01:07:23.004Z,90.01
2022-09-20T01:09:53.092Z,90.37
2022-09-20T01:12:23.134Z,89.67
2022-09-20T01:14:53.425Z,90.06
2022-09-20T01:17:26.082Z,90.32
2022-09-20T01:20:08.184Z,90.94
2022-09-20T01:22:45.624Z,89.87
2022-09-20T01:25:18.740Z,89.64
2022-09-20T01:27:50.171Z,91.01
2022-09-20T01:30:20.794Z,90.64
2022-09-20T01:33:12.833Z,90.41
2022-09-20T01:35:42.881Z,90.06
2022-09-20T01:38:24.843Z,90.81
2022-09-20T01:41:04.042Z,90.64
2022-09-20T01:43:38.387Z,91.23
2022-09-20T01:46:21.314Z,91.49
2022-09-20T01:48:52.045Z,91.24
2022-09-20T01:51:52.216Z,90.30
2022-09-20T01:54:50.752Z,91.02
2022-09-20T01:57:48.287Z,91.41
2022-09-20T02:00:22.840Z,91.61
2022-09-20T02:03:14.529Z,90.62
2022-09-20T02:05:56.195Z,90.46
2022-09-20T02:08:52.496Z,89.97
2022-09-20T02:11:22.098Z,89.85
2022-09-20T02:14:21.364Z,89.72
2022-09-20T02:16:56.746Z,90.83
2022-09-20T02:19:42.846Z,89.97
2022-09-20T02:22:25.741Z,89.36
2022-09-20T02:25:02.821Z,89.49
2022-09-20T02:27:41.581Z,88.49
2022-09-20T02:30:20.996Z,88.73
2022-09-20T02:33:13.964Z,88.36
2022-09-20T02:35:51.722Z,88.42
2022-09-20T02:38:43.038Z,89.64
2022-09-20T02:41:32.899Z,89.27
2022-09-20T02:44:08.823Z,89.92
2022-09-20T02:46:44.877Z,89.63
2022-09-20T02:49:23.623Z,89.48
2022-09-20T02:51:57.546Z,89.74
2022-09-20T02:54:35.281Z,89.18
2022-09-20T02:57:15.421Z,89.87
2022-09-20T02:59:48.281Z,89.52
2022-09-20T03:02:25.109Z,89.13
2022-09-20T03:05:09.925Z,89.26
2022-09-20T03:07:57.779Z,89.79
2022-09-20T03:10:32.935Z,89.91
2022-09-20T03:13:23.823Z,89.73
2022-09-20T03:16:04.191Z,90.06
2022-09-20T03:18:40.125Z,90.19
2022-09-20T03:21:25.040Z,90.34
2022-09-20T03:24:05.043Z,89.25
2022-09-20T03:26:44.889Z,90.53
2022-09-20T03:29:28.408Z,91.00
2022-09-20T03:32:13.362Z,90.48
2022-09-20T03:34:54.091Z,90.74
2022-09-20T03:37:47.583Z,91.45
2022-09-20T03:40:59.842Z,90.99
2022-09-20T03:43:41.215Z,90.77
2022-09-20T03:46:19.161Z,90.58
2022-09-20T03:49:05.697Z,90.08
2022-09-20T03:51:40.265Z,88.69
2022-09-20T03:54:44.009Z,88.61
2022-09-20T03:57:36.408Z,88.48
2022-09-20T04:00:23.961Z,88.78
2022-09-20T04:03:24.266Z,88.99
2022-09-20T04:06:02.838Z,89.33
2022-09-20T04:08:49.776Z,88.73
2022-09-20T04:11:27.200Z,89.62
2022-09-20T04:14:00.658Z,89.75
2022-09-20T04:16:37.852Z,90.53
2022-09-20T04:19:16.743Z,91.13
2022-09-20T04:21:51.336Z,90.21
2022-09-20T04:24:24.865Z,90.44
2022-09-20T04:27:00.964Z,89.49
2022-09-20T04:29:37.549Z,89.87
2022-09-20T04:32:16.871Z,90.06
2022-09-20T04:35:07.364Z,90.74
2022-09-20T04:37:38.959Z,91.16
2022-09-20T04:40:22.123Z,91.50
2022-09-20T04:43:27.653Z,91.49
2022-09-20T04:46:09.699Z,89.74
2022-09-20T04:49:20.371Z,89.39
2022-09-20T04:52:25.815Z,89.80
2022-09-20T04:55:40.460Z,89.82
2022-09-20T04:58:56.691Z,89.93
2022-09-20T05:02:07.764Z,89.45
2022-09-20T05:05:02.882Z,89.40
2022-09-20T05:08:17.116Z,89.65
2022-09-20T05:11:30.447Z,89.70
2022-09-20T05:14:22.950Z,89.10
2022-09-20T05:17:14.809Z,89.61
2022-09-20T05:19:56.467Z,89.68
2022-09-20T05:22:48.256Z,88.68
2022-09-20T05:25:39.436Z,90.31
2022-09-20T05:28:13.652Z,90.16
2022-09-20T05:30:48.420Z,89.63
2022-09-20T05:33:23.876Z,89.44
2022-09-20T05:36:03.688Z,88.64
2022-09-20T05:38:40.804Z,89.08
2022-09-20T05:41:19.467Z,88.73
2022-09-20T05:43:56.026Z,88.09
2022-09-20T05:46:41.514Z,88.38
2022-09-20T05:49:21.871Z,87.37
2022-09-20T05:52:15.804Z,87.95
2022-09-20T05:55:14.574Z,86.96
2022-09-20T05:57:57.626Z,86.69
2022-09-20T06:00:31.911Z,85.36
2022-09-20T06:03:11.556Z,85.61
2022-09-20T06:05:51.703Z,85.02
2022-09-20T06:08:50.183Z,85.62
2022-09-20T06:11:46.745Z,84.39
2022-09-20T06:14:29.281Z,85.28
2022-09-20T06:17:06.572Z,83.95
2022-09-20T06:19:42.449Z,85.04
2022-09-20T06:22:17.783Z,83.70
2022-09-20T06:24:51.202Z,85.13
2022-09-20T06:27:23.185Z,84.27
2022-09-20T06:29:56.145Z,84.76
2022-09-20T06:32:24.432Z,84.44
2022-09-20T06:34:55.244Z,82.74
2022-09-20T06:37:55.919Z,83.93
2022-09-20T06:40:57.809Z,85.98
2022-09-20T06:43:25.707Z,84.28
2022-09-20T06:45:54.056Z,81.38
2022-09-20T06:48:22.041Z,79.35
2022-09-20T06:50:52.293Z,76.92
2022-09-20T06:53:31.131Z,77.25
2022-09-20T06:55:59.866Z,75.21
2022-09-20T06:58:28.316Z,76.14
2022-09-20T07:00:57.035Z,74.83
2022-09-20T07:03:25.512Z,74.90
2022-09-20T07:05:54.759Z,74.90
2022-09-20T07:08:22.768Z,74.22
2022-09-20T07:10:51.415Z,75.29
2022-09-20T07:13:20.888Z,72.51
2022-09-20T07:15:49.280Z,69.04
2022-09-20T07:18:17.300Z,71.68
2022-09-20T07:20:45.309Z,67.66
2022-09-20T07:23:16.224Z,65.41
2022-09-20T07:25:45.423Z,66.94
2022-09-20T07:28:13.360Z,69.46
2022-09-20T07:30:41.768Z,65.71
2022-09-20T07:33:10.489Z,70.46
2022-09-20T07:35:38.713Z,66.97
2022-09-20T07:38:07.002Z,68.87
2022-09-20T07:40:36.239Z,71.47
2022-09-20T07:43:04.418Z,70.25
2022-09-20T07:45:32.687Z,71.34
2022-09-20T07:48:05.300Z,69.72
2022-09-20T07:50:33.914Z,68.22
2022-09-20T07:53:01.923Z,69.45
2022-09-20T07:55:31.431Z,73.46
2022-09-20T07:58:00.748Z,74.77
2022-09-20T08:00:28.592Z,73.88
2022-09-20T08:03:01.903Z,73.95
2022-09-20T08:05:30.204Z,73.93
2022-09-20T08:07:59.785Z,76.22
2022-09-20T08:10:28.520Z,77.07
2022-09-20T08:15:49.302Z,76.27
2022-09-20T08:18:20.535Z,74.80
2022-09-20T08:20:48.828Z,75.53
2022-09-20T08:23:24.284Z,75.38
2022-09-20T08:25:52.687Z,76.92
2022-09-20T08:28:20.550Z,76.23
2022-09-20T08:30:50.470Z,74.72
2022-09-20T08:33:18.306Z,72.56
2022-09-20T08:35:50.464Z,74.37
2022-09-20T08:41:11.865Z,71.67
2022-09-20T08:43:45.638Z,70.58
2022-09-20T08:46:23.309Z,70.01
2022-09-20T08:48:52.657Z,66.71
2022-09-20T08:51:23.330Z,65.21
2022-09-20T08:53:57.509Z,67.42
2022-09-20T08:56:29.981Z,64.86
2022-09-20T08:59:01.384Z,64.92
2022-09-20T09:01:32.503Z,64.42
2022-09-20T09:04:12.503Z,64.57
2022-09-20T09:06:41.528Z,64.26
2022-09-20T09:09:15.748Z,62.27
2022-09-20T09:11:46.066Z,63.66
2022-09-20T09:14:37.926Z,62.46
2022-09-20T09:17:07.680Z,65.70
2022-09-20T09:19:45.134Z,62.06
2022-09-20T09:22:19.127Z,61.64
2022-09-20T09:24:47.163Z,60.55
2022-09-20T09:27:17.645Z,59.05
2022-09-20T09:29:52.543Z,62.64
2022-09-20T09:32:24.474Z,64.25
2022-09-20T09:34:53.185Z,67.56
2022-09-20T09:37:30.576Z,65.39
2022-09-20T09:40:12.146Z,65.02
2022-09-20T09:42:50.205Z,70.64
2022-09-20T09:45:31.976Z,72.12
2022-09-20T09:48:03.096Z,69.67
2022-09-20T09:50:34.040Z,71.20
2022-09-20T09:53:07.686Z,66.15
2022-09-20T09:55:52.712Z,60.66
2022-09-20T09:58:33.385Z,58.11
2022-09-20T10:01:08.125Z,52.19
2022-09-20T10:03:51.274Z,52.39
2022-09-20T10:06:27.812Z,52.09
2022-09-20T10:09:11.076Z,50.38
2022-09-20T10:12:01.976Z,52.02
2022-09-20T10:14:47.397Z,46.29
2022-09-20T10:17:35.486Z,51.12
2022-09-20T10:24:03.952Z,53.25
2022-09-20T10:27:00.732Z,54.89
2022-09-20T10:29:40.687Z,54.82
2022-09-20T10:32:23.232Z,57.59
2022-09-20T10:35:27.022Z,52.80
2022-09-20T10:38:13.160Z,48.94
2022-09-20T10:41:13.683Z,49.88
2022-09-20T10:44:02.826Z,50.02
2022-09-20T10:46:43.025Z,52.33
2022-09-20T10:49:24.152Z,52.87
2022-09-20T10:52:04.782Z,51.94
2022-09-20T10:54:47.979Z,50.01
2022-09-20T10:57:51.023Z,50.78
2022-09-20T11:00:22.499Z,48.22
2022-09-20T11:03:05.497Z,46.34
2022-09-20T11:05:48.098Z,48.44
2022-09-20T11:08:22.819Z,47.50
2022-09-20T11:10:55.951Z,49.55
2022-09-20T11:13:31.584Z,50.31
2022-09-20T11:16:04.651Z,49.13
2022-09-20T11:18:40.298Z,49.19
2022-09-20T11:21:13.235Z,49.34
2022-09-20T11:23:51.251Z,48.74
2022-09-20T11:30:09.648Z,52.35
2022-09-20T11:32:42.880Z,53.48
2022-09-20T11:35:25.118Z,53.64
2022-09-20T11:38:00.578Z,53.78
2022-09-20T11:40:33.906Z,52.54
2022-09-20T11:43:06.438Z,51.47
2022-09-20T11:45:39.027Z,50.39
2022-09-20T11:48:12.394Z,49.89
2022-09-20T11:51:14.612Z,47.23
2022-09-20T11:54:10.567Z,47.88
2022-09-20T11:56:40.329Z,46.78
2022-09-20T11:59:24.395Z,45.66
2022-09-20T12:01:58.321Z,47.69
2022-09-20T12:04:33.902Z,46.08
2022-09-20T12:07:43.983Z,46.88
2022-09-20T12:10:24.855Z,44.73
2022-09-20T12:12:59.452Z,45.47
2022-09-20T12:15:31.231Z,45.82
2022-09-20T12:18:37.510Z,46.77
2022-09-20T12:21:16.974Z,48.02
2022-09-20T12:24:19.007Z,47.66
2022-09-20T12:26:49.137Z,47.25
2022-09-20T12:29:50.657Z,45.61
2022-09-20T12:32:56.796Z,45.91
2022-09-20T12:36:14.895Z,47.38
2022-09-20T12:39:21.825Z,63.14
2022-09-20T12:41:55.678Z,68.75
2022-09-20T12:44:42.435Z,70.16
2022-09-20T12:47:21.340Z,70.30
2022-09-20T12:50:11.387Z,69.37
2022-09-20T12:53:00.667Z,74.11
2022-09-20T12:55:40.367Z,73.96
2022-09-20T12:58:21.038Z,77.49
2022-09-20T13:00:51.256Z,71.39
2022-09-20T13:03:29.516Z,69.08
2022-09-20T13:06:27.488Z,68.94
2022-09-20T13:09:04.594Z,66.76
2022-09-20T13:11:41.431Z,69.66
2022-09-20T13:14:14.546Z,75.16
2022-09-20T13:16:52.640Z,70.03
2022-09-20T13:19:25.941Z,67.61
2022-09-20T13:21:59.603Z,65.95
2022-09-20T13:24:29.963Z,70.10
2022-09-20T13:27:06.807Z,65.79
2022-09-20T13:29:42.330Z,67.59
2022-09-20T13:32:18.769Z,65.74
2022-09-20T13:34:47.018Z,63.84
2022-09-20T13:37:23.506Z,62.24
2022-09-20T13:39:54.736Z,63.04
2022-09-20T13:42:24.669Z,64.88
2022-09-20T13:44:53.188Z,64.75
2022-09-20T13:47:26.629Z,65.95
2022-09-20T13:50:00.251Z,67.93
2022-09-20T13:52:30.852Z,65.16
2022-09-20T13:54:58.698Z,68.31
2022-09-20T13:57:31.402Z,65.41
2022-09-20T14:00:01.734Z,62.40
2022-09-20T14:02:32.970Z,59.07
2022-09-20T14:05:02.967Z,65.64
2022-09-20T14:07:31.684Z,57.92
2022-09-20T14:10:00.270Z,56.38
2022-09-20T14:12:30.176Z,58.78
2022-09-20T14:14:59.507Z,55.98
2022-09-20T14:17:33.435Z,56.75
2022-09-20T14:20:01.684Z,65.10
2022-09-20T14:22:30.735Z,71.76
2022-09-20T14:25:02.125Z,72.22
2022-09-20T14:27:32.739Z,74.34
2022-09-20T14:30:00.593Z,70.56
2022-09-20T14:32:40.441Z,71.08
2022-09-20T14:35:16.876Z,71.23
2022-09-20T14:37:47.816Z,70.97
2022-09-20T14:40:21.772Z,72.97
2022-09-20T14:42:53.840Z,75.30
2022-09-20T14:45:28.386Z,76.08
2022-09-20T14:48:08.073Z,76.86
2022-09-20T14:50:40.575Z,75.23
2022-09-20T14:53:27.041Z,76.74
2022-09-20T14:56:00.904Z,76.64
2022-09-20T14:58:31.336Z,71.00
2022-09-20T15:01:05.102Z,70.21
2022-09-20T15:03:38.919Z,71.21
2022-09-20T15:06:10.844Z,72.55
2022-09-20T15:08:42.882Z,69.48
2022-09-20T15:11:15.099Z,71.49
2022-09-20T15:13:44.781Z,66.79
2022-09-20T15:16:14.942Z,65.28
2022-09-20T15:18:44.584Z,66.09
2022-09-20T15:21:13.423Z,61.50
2022-09-20T15:23:41.998Z,67.77
2022-09-20T15:26:13.623Z,67.04
2022-09-20T15:28:41.713Z,64.97
2022-09-20T15:31:11.750Z,64.96
2022-09-20T15:33:39.616Z,59.11
2022-09-20T15:36:08.983Z,59.45
2022-09-20T15:38:36.797Z,60.43
2022-09-20T15:41:04.752Z,61.72
2022-09-20T15:43:33.470Z,62.55
2022-09-20T15:46:17.724Z,66.48
2022-09-20T15:48:47.129Z,75.46
2022-09-20T15:51:16.188Z,82.81
2022-09-20T15:53:46.191Z,84.77
2022-09-20T15:56:21.106Z,86.01
2022-09-20T15:58:52.571Z,86.74
2022-09-20T16:01:20.559Z,86.55
2022-09-20T16:03:51.243Z,85.34
2022-09-20T16:06:19.455Z,86.13
2022-09-20T16:08:48.076Z,85.36
2022-09-20T16:11:22.254Z,85.06
2022-09-20T16:13:55.148Z,84.28
2022-09-20T16:16:23.191Z,85.80
2022-09-20T16:19:10.847Z,84.49
2022-09-20T16:21:40.640Z,86.62
2022-09-20T16:24:09.798Z,86.75
2022-09-20T16:26:38.319Z,86.84
2022-09-20T16:29:07.506Z,85.25
2022-09-20T16:31:40.253Z,87.06
2022-09-20T16:34:16.893Z,85.43
2022-09-20T16:36:45.839Z,86.30
2022-09-20T16:39:15.284Z,87.38
2022-09-20T16:41:44.386Z,86.92
2022-09-20T16:44:13.126Z,87.69
2022-09-20T16:46:41.810Z,86.50
2022-09-20T16:49:12.547Z,86.49
2022-09-20T16:51:43.078Z,86.58
2022-09-20T16:54:12.977Z,86.84
2022-09-20T16:56:42.879Z,84.90
2022-09-20T16:59:10.786Z,85.72
2022-09-20T17:01:39.716Z,86.79
2022-09-20T17:04:09.073Z,86.69
2022-09-20T17:06:39.622Z,87.96
2022-09-20T17:09:08.600Z,88.72
2022-09-20T17:11:43.754Z,88.98
2022-09-20T17:14:11.619Z,89.58
2022-09-20T17:20:08.736Z,90.09
2022-09-20T17:22:37.856Z,88.47
2022-09-20T17:25:06.271Z,88.36
2022-09-20T17:27:34.444Z,88.95
2022-09-20T17:30:02.714Z,89.53
2022-09-20T17:32:30.946Z,89.50
2022-09-20T17:38:41.297Z,89.53
2022-09-20T17:41:13.976Z,89.93
2022-09-20T17:43:42.904Z,89.07
2022-09-20T17:46:13.736Z,89.59
2022-09-20T17:48:49.294Z,90.42
2022-09-20T17:51:18.658Z,90.87
2022-09-20T17:53:48.448Z,91.83
2022-09-20T17:56:16.831Z,91.66
2022-09-20T17:58:45.124Z,91.60
2022-09-20T18:01:15.398Z,90.58
2022-09-20T18:03:46.743Z,90.28
2022-09-20T18:10:16.106Z,92.22
2022-09-20T18:12:45.258Z,92.87
2022-09-20T18:15:13.210Z,92.82
2022-09-20T18:17:41.723Z,92.41
2022-09-20T18:20:10.495Z,92.18
2022-09-20T18:22:38.742Z,93.27
2022-09-20T18:25:07.909Z,92.86
2022-09-20T18:27:38.322Z,93.07
2022-09-20T18:30:08.310Z,91.75
2022-09-20T18:32:36.222Z,92.70
2022-09-20T18:35:04.306Z,91.89
2022-09-20T18:37:32.740Z,92.11
2022-09-20T18:40:01.044Z,92.39
2022-09-20T18:42:29.025Z,91.71
2022-09-20T18:44:59.221Z,92.00
2022-09-20T18:47:27.571Z,91.75
2022-09-20T18:49:55.506Z,92.12
2022-09-20T18:52:24.615Z,91.70
2022-09-20T18:54:55.200Z,91.95
2022-09-20T18:57:23.932Z,92.58
2022-09-20T18:59:54.598Z,92.50
2022-09-20T19:02:42.068Z,92.17
2022-09-20T19:05:26.357Z,92.01
2022-09-20T19:08:08.602Z,92.92
2022-09-20T19:10:43.338Z,92.06
2022-09-20T19:13:39.511Z,91.10
2022-09-20T19:16:19.198Z,92.15
2022-09-20T19:19:10.172Z,92.15
2022-09-20T19:21:47.394Z,92.22
2022-09-20T19:24:23.919Z,92.09
2022-09-20T19:26:53.081Z,93.26
2022-09-20T19:33:02.954Z,93.25
2022-09-20T19:35:38.230Z,93.39
2022-09-20T19:38:16.067Z,93.11
2022-09-20T19:40:50.337Z,94.50
2022-09-20T19:43:35.747Z,93.77
2022-09-20T19:46:13.731Z,93.30
2022-09-20T19:48:47.248Z,93.62
2022-09-20T19:51:17.168Z,93.37
2022-09-20T19:53:45.864Z,93.99
2022-09-20T19:56:24.870Z,93.23
2022-09-20T19:58:56.153Z,93.13
2022-09-20T20:01:26.130Z,92.87
2022-09-20T20:03:55.878Z,93.21
2022-09-20T20:06:32.418Z,93.40
2022-09-20T20:09:08.327Z,93.94
2022-09-20T20:11:46.613Z,93.04
2022-09-20T20:14:24.103Z,93.23
2022-09-20T20:17:04.131Z,92.59
2022-09-20T20:19:51.447Z,92.96
2022-09-20T20:22:36.107Z,92.82
2022-09-20T20:25:04.445Z,93.60
2022-09-20T20:27:33.026Z,93.75
2022-09-20T20:30:00.955Z,93.02
2022-09-20T20:32:29.211Z,92.82
2022-09-20T20:34:57.063Z,93.09
2022-09-20T20:37:28.571Z,92.65
2022-09-20T20:39:56.477Z,94.03
2022-09-20T20:42:24.903Z,92.93
2022-09-20T20:44:53.071Z,93.80
2022-09-20T20:47:21.356Z,93.13
2022-09-20T20:49:52.603Z,94.26
2022-09-20T20:52:21.074Z,93.95
2022-09-20T20:54:50.547Z,93.82
2022-09-20T20:57:19.393Z,93.24
2022-09-20T20:59:47.463Z,92.67
2022-09-20T21:02:15.839Z,92.85
2022-09-20T21:04:43.922Z,92.37
2022-09-20T21:07:12.546Z,91.18
2022-09-20T21:09:40.542Z,90.52
2022-09-20T21:12:09.967Z,89.38
2022-09-20T21:14:38.335Z,89.48
2022-09-20T21:17:06.733Z,90.92
2022-09-20T21:19:35.159Z,91.53
2022-09-20T21:22:03.445Z,92.06
2022-09-20T21:24:31.394Z,92.28
2022-09-20T21:26:59.737Z,92.62
2022-09-20T21:29:29.021Z,92.84
2022-09-20T21:31:57.263Z,91.90
2022-09-20T21:34:25.365Z,92.77
2022-09-20T21:36:53.965Z,92.93
2022-09-20T21:39:21.889Z,92.49
2022-09-20T21:41:49.879Z,92.69
2022-09-20T21:44:17.746Z,93.27
2022-09-20T21:46:48.536Z,92.84
2022-09-20T21:49:17.886Z,92.71
2022-09-20T21:51:46.238Z,93.10
2022-09-20T21:54:14.916Z,92.07
2022-09-20T21:56:43.181Z,93.01
2022-09-20T21:59:11.207Z,92.55
2022-09-20T22:01:41.545Z,93.40
2022-09-20T22:04:12.829Z,93.56
2022-09-20T22:06:42.889Z,93.13
2022-09-20T22:09:12.688Z,93.02
2022-09-20T22:11:43.693Z,92.62
2022-09-20T22:14:13.034Z,93.80
2022-09-20T22:16:42.931Z,93.98
2022-09-20T22:19:14.003Z,93.47
2022-09-20T22:21:44.394Z,93.73
2022-09-20T22:24:13.930Z,94.00
2022-09-20T22:26:44.531Z,92.43
2022-09-20T22:29:12.937Z,92.15
2022-09-20T22:31:45.535Z,93.05
2022-09-20T22:34:18.460Z,92.66
2022-09-20T22:36:47.350Z,92.94
2022-09-20T22:39:15.724Z,94.29
2022-09-20T22:41:44.987Z,94.37
2022-09-20T22:44:13.410Z,93.35
2022-09-20T22:46:42.125Z,93.64
2022-09-20T22:49:10.540Z,93.35
2022-09-20T22:51:40.236Z,93.68
2022-09-20T22:54:09.622Z,93.62
2022-09-20T22:56:38.746Z,93.61
2022-09-20T22:59:09.219Z,92.21
2022-09-20T23:01:39.073Z,90.31
2022-09-20T23:04:09.147Z,91.85
2022-09-20T23:06:40.906Z,92.06
2022-09-20T23:09:10.871Z,92.36
2022-09-20T23:11:42.351Z,92.52
2022-09-20T23:14:12.799Z,91.81
2022-09-20T23:16:41.779Z,92.07
2022-09-20T23:19:10.095Z,93.45
2022-09-20T23:21:41.213Z,92.76
2022-09-20T23:24:11.379Z,93.25
2022-09-20T23:26:40.685Z,92.72
2022-09-20T23:29:10.998Z,92.56
2022-09-20T23:31:40.854Z,94.00
2022-09-20T23:34:10.676Z,94.46
2022-09-20T23:36:42.257Z,94.74
2022-09-20T23:39:11.706Z,95.04
2022-09-20T23:41:41.838Z,94.18
2022-09-20T23:44:11.504Z,93.41
2022-09-20T23:46:40.392Z,92.81
2022-09-20T23:49:09.360Z,92.56
2022-09-20T23:51:39.254Z,93.69
2022-09-20T23:54:07.209Z,94.35
2022-09-20T23:56:36.263Z,95.43
2022-09-20T23:59:04.126Z,93.97
